Time;durP1;ratioP1;P1;durP2;ratioP2;P2;SDS_P1;SDS_P2;PMS_P1;PMS_P2;Temp;Humidity;BMP_temperature;BMP_pressure;BME280_temperature;BME280_humidity;BME280_pressure;Samples;Min_cycle;Max_cycle;Signal;HPM_P1;HPM_P2
2022/04/12 00:00:31;;;;;;;3.15;1.90;;;18.10;55.50;;;;;;4914351;28;95093;-67
2022/04/12 00:02:57;;;;;;;2.88;2.20;;;18.10;55.40;;;;;;4915770;28;93258;-67
2022/04/12 00:05:23;;;;;;;2.38;2.10;;;18.10;55.40;;;;;;4914886;28;93148;-67
2022/04/12 00:07:49;;;;;;;2.50;2.30;;;18.10;55.40;;;;;;4915696;28;94293;-67
2022/04/12 00:10:14;;;;;;;2.58;2.13;;;18.10;55.40;;;;;;4915256;28;93111;-67
2022/04/12 00:12:41;;;;;;;2.83;2.13;;;18.10;55.30;;;;;;4915935;28;92655;-67
2022/04/12 00:15:08;;;;;;;2.72;2.10;;;18.10;55.40;;;;;;4914598;28;97340;-67
2022/04/12 00:20:20;;;;;;;2.92;2.15;;;18.10;55.40;;;;;;4915098;28;92603;-67
2022/04/12 00:22:46;;;;;;;2.92;2.20;;;18.00;55.30;;;;;;4916046;28;93074;-67
2022/04/12 00:25:13;;;;;;;2.78;2.30;;;18.10;55.40;;;;;;4913719;28;96064;-67
2022/04/12 00:27:40;;;;;;;2.35;2.15;;;18.10;55.40;;;;;;4914942;28;95230;-66
2022/04/12 00:30:12;;;;;;;2.53;2.30;;;18.00;55.40;;;;;;4915116;28;94054;-67
2022/04/12 00:32:38;;;;;;;3.55;2.40;;;18.00;55.30;;;;;;4915189;28;92911;-67
2022/04/12 00:35:04;;;;;;;2.30;2.10;;;18.00;55.30;;;;;;4897093;28;93158;-67
2022/04/12 00:37:30;;;;;;;2.20;1.90;;;18.00;55.40;;;;;;4914856;28;93149;-66
2022/04/12 00:39:56;;;;;;;2.28;2.08;;;18.00;55.30;;;;;;4914689;28;92555;-67
2022/04/12 00:42:21;;;;;;;2.90;2.08;;;18.00;55.40;;;;;;4915865;28;91698;-67
2022/04/12 00:44:47;;;;;;;3.22;2.30;;;18.00;55.30;;;;;;4914504;28;93283;-67
2022/04/12 00:47:13;;;;;;;2.75;2.30;;;18.00;55.30;;;;;;4914701;28;92485;-67
2022/04/12 00:49:39;;;;;;;2.60;2.20;;;18.00;55.40;;;;;;4912595;28;95465;-69
2022/04/12 00:52:10;;;;;;;2.50;2.30;;;18.00;55.30;;;;;;4915207;28;92845;-67
2022/04/12 00:54:37;;;;;;;2.25;2.00;;;18.00;55.30;;;;;;4914047;28;94084;-68
2022/04/12 00:57:04;;;;;;;3.05;2.22;;;17.90;55.20;;;;;;4914775;28;92973;-66
2022/04/12 00:59:34;;;;;;;2.35;2.10;;;18.00;55.30;;;;;;4913130;28;93714;-67
2022/04/12 01:02:04;;;;;;;2.40;2.03;;;18.00;55.30;;;;;;4914627;28;92653;-67
2022/04/12 01:04:31;;;;;;;3.33;2.08;;;17.90;55.20;;;;;;4914753;28;95014;-67
2022/04/12 01:06:57;;;;;;;3.03;2.45;;;18.00;55.20;;;;;;4915529;28;93155;-66
2022/04/12 01:09:26;;;;;;;2.15;1.92;;;17.90;55.20;;;;;;4915706;28;92782;-69
2022/04/12 01:11:53;;;;;;;2.40;2.17;;;17.90;55.20;;;;;;4915609;28;92482;-67
2022/04/12 01:14:19;;;;;;;2.58;2.38;;;17.90;55.20;;;;;;4914232;28;96626;-67
2022/04/12 01:16:45;;;;;;;2.72;2.30;;;17.90;55.20;;;;;;4914971;28;95282;-66
2022/04/12 01:19:11;;;;;;;2.40;2.20;;;17.90;55.20;;;;;;4914484;28;93208;-67
2022/04/12 01:21:54;;;;;;;4.18;2.25;;;17.90;55.20;;;;;;4913690;28;93579;-67
2022/04/12 01:24:20;;;;;;;3.38;2.20;;;17.90;55.10;;;;;;4913868;28;94905;-67
2022/04/12 01:26:46;;;;;;;2.30;2.10;;;17.90;55.20;;;;;;4914245;28;93281;-67
2022/04/12 01:29:12;;;;;;;2.30;2.10;;;17.90;55.20;;;;;;4914383;28;92767;-67
2022/04/12 01:31:38;;;;;;;2.65;2.20;;;17.90;55.20;;;;;;4914204;28;92142;-67
2022/04/12 01:34:03;;;;;;;2.33;2.10;;;17.90;55.20;;;;;;4914042;28;93840;-70
2022/04/12 01:36:29;;;;;;;2.17;2.08;;;17.90;55.20;;;;;;4914894;28;92746;-67
2022/04/12 01:38:55;;;;;;;2.90;2.00;;;17.80;55.20;;;;;;4914645;28;95002;-66
2022/04/12 01:41:20;;;;;;;2.67;2.20;;;17.80;55.10;;;;;;4915362;28;92444;-67
2022/04/12 01:43:46;;;;;;;2.45;2.25;;;17.80;55.10;;;;;;4915089;28;92750;-67
2022/04/12 01:46:12;;;;;;;2.15;1.95;;;17.80;55.20;;;;;;4914987;28;96040;-67
2022/04/12 01:48:38;;;;;;;2.70;2.08;;;17.80;56.10;;;;;;4915156;28;97462;-66
2022/04/12 01:51:03;;;;;;;2.55;2.17;;;17.80;55.10;;;;;;4913824;28;100744;-68
2022/04/12 01:53:29;;;;;;;2.33;2.13;;;17.80;55.00;;;;;;4914427;28;94288;-67
2022/04/12 01:55:55;;;;;;;2.22;2.03;;;17.80;55.10;;;;;;4914906;28;92754;-66
2022/04/12 01:58:20;;;;;;;2.40;2.20;;;17.80;55.00;;;;;;4914310;28;92546;-67
2022/04/12 02:00:47;;;;;;;2.40;2.20;;;17.80;55.10;;;;;;4915226;28;92987;-69
2022/04/12 02:03:13;;;;;;;2.40;2.20;;;17.80;55.10;;;;;;4913737;28;96791;-69
2022/04/12 02:05:39;;;;;;;2.60;2.40;;;17.80;55.10;;;;;;4896608;28;96374;-67
2022/04/12 02:08:11;;;;;;;2.60;2.35;;;17.80;55.10;;;;;;4914228;28;92810;-67
2022/04/12 02:10:36;;;;;;;2.80;2.20;;;17.80;55.00;;;;;;4913483;28;94640;-67
2022/04/12 02:13:02;;;;;;;2.60;2.35;;;17.80;55.10;;;;;;4913832;28;94744;-66
2022/04/12 02:15:28;;;;;;;2.88;2.50;;;17.70;55.00;;;;;;4913321;28;94644;-67
2022/04/12 02:17:53;;;;;;;2.15;2.00;;;17.80;55.00;;;;;;4914709;28;93060;-66
2022/04/12 02:20:19;;;;;;;2.35;2.10;;;17.80;55.00;;;;;;4913639;28;92078;-66
2022/04/12 02:22:45;;;;;;;2.58;2.38;;;17.80;55.00;;;;;;4914341;28;93078;-67
2022/04/12 02:25:10;;;;;;;2.60;2.40;;;17.70;55.00;;;;;;4913931;28;106597;-67
2022/04/12 02:27:37;;;;;;;2.60;2.40;;;17.70;55.00;;;;;;4912600;28;95857;-66
2022/04/12 02:30:05;;;;;;;2.55;2.35;;;17.80;55.00;;;;;;4914131;28;92529;-66
2022/04/12 02:32:32;;;;;;;2.83;2.53;;;17.70;54.90;;;;;;4914437;28;94571;-67
2022/04/12 02:35:00;;;;;;;2.50;2.30;;;17.70;55.00;;;;;;4913899;28;93913;-67
2022/04/12 02:37:27;;;;;;;2.70;2.50;;;17.70;54.90;;;;;;4913872;28;92891;-67
2022/04/12 02:39:53;;;;;;;2.35;2.15;;;17.70;54.90;;;;;;4914218;28;92792;-67
2022/04/12 02:42:18;;;;;;;2.67;2.42;;;17.70;54.90;;;;;;4913816;28;94788;-66
2022/04/12 02:44:44;;;;;;;3.05;2.30;;;17.70;54.90;;;;;;4914541;28;92774;-68
2022/04/12 02:47:09;;;;;;;2.85;2.38;;;17.70;54.90;;;;;;4913982;28;96958;-67
2022/04/12 02:49:35;;;;;;;2.28;2.08;;;17.70;55.00;;;;;;4913861;28;93439;-67
2022/04/12 02:52:00;;;;;;;2.85;2.50;;;17.70;54.90;;;;;;4913420;28;96534;-67
2022/04/12 02:54:26;;;;;;;2.53;2.05;;;17.70;54.90;;;;;;4913279;28;102867;-67
2022/04/12 02:56:52;;;;;;;3.65;2.72;;;17.70;54.90;;;;;;4913485;28;92678;-67
2022/04/12 02:59:18;;;;;;;3.55;2.50;;;17.70;54.90;;;;;;4913437;28;92579;-67
2022/04/12 03:01:44;;;;;;;2.80;2.50;;;17.60;54.90;;;;;;4913299;28;93432;-66
2022/04/12 03:04:09;;;;;;;2.30;2.10;;;17.70;54.90;;;;;;4912980;28;93787;-66
2022/04/12 03:06:35;;;;;;;2.55;2.35;;;17.70;54.90;;;;;;4913427;28;92755;-67
2022/04/12 03:09:00;;;;;;;2.67;2.30;;;17.60;54.90;;;;;;4914494;28;92018;-67
2022/04/12 03:11:26;;;;;;;2.45;2.25;;;17.60;54.80;;;;;;4913313;28;93196;-67
2022/04/12 03:13:52;;;;;;;2.50;2.30;;;17.60;54.90;;;;;;4913069;28;94844;-67
2022/04/12 04:20:17;;;;;;;2.40;2.20;;;17.40;54.70;;;;;;4046218;23;93450;-72
2022/04/12 04:22:43;;;;;;;2.28;2.08;;;17.40;54.70;;;;;;4893605;28;94456;-72
2022/04/12 04:25:11;;;;;;;2.30;2.10;;;17.50;54.80;;;;;;4894198;28;92543;-71
2022/04/12 04:27:37;;;;;;;2.40;2.20;;;17.50;54.70;;;;;;4893372;28;92557;-71
2022/04/12 04:30:08;;;;;;;2.33;2.13;;;17.40;55.70;;;;;;4892185;28;95286;-72
2022/04/12 04:32:37;;;;;;;2.38;2.10;;;17.50;54.70;;;;;;4895050;28;93542;-71
2022/04/12 04:35:04;;;;;;;2.40;2.20;;;17.40;54.60;;;;;;4896397;28;92628;-72
2022/04/12 04:37:29;;;;;;;3.17;2.10;;;17.40;54.60;;;;;;4896862;28;92530;-72
2022/04/12 04:39:55;;;;;;;2.42;2.22;;;17.50;54.60;;;;;;4895245;28;103516;-72
2022/04/12 04:42:23;;;;;;;2.50;2.30;;;17.40;54.60;;;;;;4895947;28;105000;-72
2022/04/12 04:44:49;;;;;;;3.10;2.25;;;17.40;54.60;;;;;;4897004;28;92520;-71
2022/04/12 04:47:15;;;;;;;2.75;2.35;;;17.40;54.60;;;;;;4897347;28;92635;-71
2022/04/12 04:49:40;;;;;;;2.30;2.10;;;17.40;54.60;;;;;;4896371;28;93341;-72
2022/04/12 04:52:06;;;;;;;2.30;2.10;;;17.40;54.60;;;;;;4895388;28;100205;-72
2022/04/12 04:54:32;;;;;;;2.42;2.20;;;17.40;54.60;;;;;;4895251;28;92591;-71
2022/04/12 04:56:57;;;;;;;2.83;2.47;;;17.40;54.60;;;;;;4896119;28;92353;-72
2022/04/12 04:59:23;;;;;;;2.60;2.40;;;17.40;54.60;;;;;;4895126;28;107016;-73
2022/04/12 05:01:49;;;;;;;2.78;2.13;;;17.40;54.60;;;;;;4896636;28;93402;-72
2022/04/12 05:04:15;;;;;;;2.63;2.42;;;17.40;54.50;;;;;;4894994;28;94963;-72
2022/04/12 05:06:40;;;;;;;3.40;2.30;;;17.40;54.50;;;;;;4895994;28;92662;-72
2022/04/12 05:09:06;;;;;;;2.60;2.17;;;17.40;54.50;;;;;;4895828;28;95335;-73
2022/04/12 05:11:31;;;;;;;2.60;2.20;;;17.40;54.50;;;;;;4894225;28;106468;-72
2022/04/12 05:13:57;;;;;;;2.83;2.00;;;17.40;54.50;;;;;;4895260;28;93027;-72
2022/04/12 05:16:23;;;;;;;2.45;2.25;;;17.40;54.50;;;;;;4895259;28;92477;-72
2022/04/12 05:18:51;;;;;;;4.35;2.42;;;17.40;55.50;;;;;;4893925;28;94618;-71
2022/04/12 05:21:17;;;;;;;3.45;2.50;;;17.40;54.50;;;;;;4895178;28;94855;-71
2022/04/12 05:23:44;;;;;;;4.95;2.20;;;17.40;55.40;;;;;;4894940;28;92741;-71
2022/04/12 05:26:11;;;;;;;2.45;2.13;;;17.40;54.40;;;;;;4895817;28;93100;-71
2022/04/12 05:28:37;;;;;;;2.72;2.20;;;17.40;54.50;;;;;;4893301;28;96472;-71
2022/04/12 05:31:02;;;;;;;2.80;2.45;;;17.40;54.50;;;;;;4894165;28;95285;-70
2022/04/12 05:33:28;;;;;;;12.88;2.67;;;17.40;54.50;;;;;;4894034;28;93179;-71
2022/04/12 05:35:54;;;;;;;8.57;2.50;;;17.40;54.60;;;;;;4893715;28;93464;-71
2022/04/12 05:38:20;;;;;;;12.07;2.50;;;17.40;54.60;;;;;;4894857;28;94626;-71
2022/04/12 05:40:45;;;;;;;10.95;2.70;;;17.40;54.50;;;;;;4893587;28;93421;-71
2022/04/12 05:43:11;;;;;;;15.93;2.67;;;17.40;54.50;;;;;;4895191;28;92987;-70
2022/04/12 05:45:37;;;;;;;11.05;2.47;;;17.40;54.50;;;;;;4893517;28;91840;-70
2022/04/12 05:48:03;;;;;;;13.00;2.80;;;17.40;54.40;;;;;;4894273;28;93317;-71
2022/04/12 05:50:29;;;;;;;10.40;2.78;;;17.40;54.50;;;;;;4893217;28;94521;-70
2022/04/12 05:52:55;;;;;;;13.77;2.78;;;17.40;54.50;;;;;;4893508;28;95041;-71
2022/04/12 05:55:23;;;;;;;11.43;2.85;;;17.40;54.50;;;;;;4895053;28;92985;-70
2022/04/12 05:57:59;;;;;;;12.57;2.97;;;17.40;54.80;;;;;;4893387;28;96713;-70
2022/04/12 06:00:26;;;;;;;9.57;2.53;;;17.50;54.80;;;;;;4894755;28;95357;-70
2022/04/12 06:02:53;;;;;;;8.98;3.60;;;17.50;54.90;;;;;;4894902;28;92577;-69
2022/04/12 06:05:21;;;;;;;14.02;6.78;;;17.50;54.30;;;;;;4894406;28;93178;-70
2022/04/12 06:07:48;;;;;;;10.82;5.72;;;17.50;51.70;;;;;;4893906;28;93050;-70
2022/04/12 06:10:15;;;;;;;8.70;5.38;;;17.50;51.10;;;;;;4894240;28;93965;-69
2022/04/12 06:12:41;;;;;;;11.80;5.80;;;17.50;51.80;;;;;;4892401;28;93068;-70
2022/04/12 06:15:08;;;;;;;14.32;5.72;;;17.50;51.00;;;;;;4893537;28;94431;-69
2022/04/12 06:17:35;;;;;;;19.08;6.00;;;17.50;50.80;;;;;;4891915;28;94904;-68
2022/04/12 06:20:08;;;;;;;21.45;6.03;;;17.60;51.20;;;;;;4892899;28;96411;-69
2022/04/12 06:22:34;;;;;;;20.05;5.60;;;17.80;51.70;;;;;;4893099;28;93138;-69
2022/04/12 06:25:00;;;;;;;17.58;5.18;;;18.00;51.80;;;;;;4894744;28;92515;-69
2022/04/12 06:27:33;;;;;;;18.40;5.45;;;18.20;51.40;;;;;;4893337;28;93501;-67
2022/04/12 06:30:08;;;;;;;17.05;5.50;;;18.30;51.00;;;;;;4895466;28;92605;-67
2022/04/12 06:32:34;;;;;;;13.68;5.20;;;18.40;51.60;;;;;;4895867;28;93021;-67
2022/04/12 06:35:01;;;;;;;15.98;5.20;;;18.30;52.30;;;;;;4899283;28;91695;-68
2022/04/12 06:37:27;;;;;;;12.00;5.20;;;18.30;53.30;;;;;;4895597;28;93019;-66
2022/04/12 06:39:56;;;;;;;10.70;4.95;;;18.30;54.50;;;;;;4894220;28;94167;-67
2022/04/12 06:42:21;;;;;;;13.45;5.53;;;18.30;55.40;;;;;;4893210;28;95219;-69
2022/04/12 06:44:47;;;;;;;13.73;4.85;;;18.30;55.60;;;;;;4894062;28;92418;-69
2022/04/12 06:47:16;;;;;;;13.07;4.53;;;18.30;55.70;;;;;;4893774;28;93121;-69
2022/04/12 06:49:44;;;;;;;9.38;4.72;;;18.30;55.90;;;;;;4894027;28;94175;-69
2022/04/12 06:52:09;;;;;;;10.80;4.20;;;18.30;56.00;;;;;;4893728;28;92763;-70
2022/04/12 06:54:35;;;;;;;9.35;4.15;;;18.30;56.20;;;;;;4893115;28;92668;-68
2022/04/12 06:57:00;;;;;;;9.85;4.72;;;18.30;56.20;;;;;;4893012;28;94181;-70
2022/04/12 06:59:26;;;;;;;9.10;3.90;;;18.30;56.20;;;;;;4893327;28;94083;-70
2022/04/12 07:01:51;;;;;;;7.03;4.38;;;18.30;56.30;;;;;;4893500;28;92575;-69
2022/04/12 07:04:17;;;;;;;9.63;4.13;;;18.30;56.20;;;;;;4893187;28;94788;-69
2022/04/12 07:06:44;;;;;;;6.93;3.78;;;18.30;56.20;;;;;;4891784;28;96782;-69
2022/04/12 07:09:15;;;;;;;6.82;3.75;;;18.30;56.20;;;;;;4892984;28;100167;-69
2022/04/12 07:11:41;;;;;;;9.82;4.07;;;18.30;56.20;;;;;;4893353;28;93122;-69
2022/04/12 07:14:06;;;;;;;10.98;4.20;;;18.30;56.30;;;;;;4893569;28;92572;-69
2022/04/12 07:16:33;;;;;;;7.60;3.63;;;18.30;56.20;;;;;;4892572;28;107352;-69
2022/04/12 07:18:58;;;;;;;7.68;4.05;;;18.30;57.20;;;;;;4892053;28;96054;-70
2022/04/12 07:21:24;;;;;;;7.40;3.95;;;18.30;56.20;;;;;;4893685;28;92916;-69
2022/04/12 07:23:50;;;;;;;9.43;4.10;;;18.20;56.30;;;;;;4893411;28;92887;-69
2022/04/12 07:26:16;;;;;;;9.68;3.70;;;18.30;57.60;;;;;;4893364;28;95001;-72
2022/04/12 07:28:42;;;;;;;10.70;4.28;;;18.30;56.60;;;;;;4892545;28;92847;-70
2022/04/12 07:31:07;;;;;;;8.23;4.10;;;18.30;57.20;;;;;;4891861;28;94955;-70
2022/04/12 07:33:33;;;;;;;10.35;4.05;;;18.30;58.40;;;;;;4892342;28;92510;-70
2022/04/12 07:35:58;;;;;;;9.55;3.95;;;18.30;59.10;;;;;;4893346;28;93555;-70
2022/04/12 07:38:26;;;;;;;7.63;4.35;;;18.30;59.70;;;;;;4892738;28;95748;-70
2022/04/12 07:40:53;;;;;;;5.50;3.83;;;18.30;59.80;;;;;;4892755;28;93862;-70
2022/04/12 07:43:19;;;;;;;8.23;3.58;;;18.30;59.90;;;;;;4892587;28;92565;-70
2022/04/12 07:45:44;;;;;;;5.68;3.58;;;18.30;59.80;;;;;;4892433;28;93177;-69
2022/04/12 07:48:11;;;;;;;7.90;3.78;;;18.30;59.80;;;;;;4892825;28;93149;-69
2022/04/12 07:50:36;;;;;;;9.40;3.78;;;18.30;59.80;;;;;;4891800;28;92942;-69
2022/04/12 07:53:02;;;;;;;9.02;3.67;;;18.30;59.90;;;;;;4892525;28;96194;-70
2022/04/12 07:55:27;;;;;;;7.15;3.70;;;18.30;59.70;;;;;;4890452;28;96109;-70
2022/04/12 07:57:53;;;;;;;7.38;3.65;;;18.30;59.80;;;;;;4892380;28;96252;-71
2022/04/12 08:00:19;;;;;;;6.03;3.85;;;18.30;59.90;;;;;;4891490;28;92633;-70
2022/04/12 08:02:44;;;;;;;9.60;3.67;;;18.30;59.80;;;;;;4892654;28;92572;-70
2022/04/12 08:05:10;;;;;;;6.25;3.42;;;18.30;59.80;;;;;;4893522;28;95235;-70
2022/04/12 08:07:36;;;;;;;6.63;3.90;;;18.30;59.70;;;;;;4894200;28;96387;-71
2022/04/12 08:10:02;;;;;;;6.47;3.70;;;18.40;59.80;;;;;;4895976;28;92595;-70
2022/04/12 08:12:28;;;;;;;10.18;3.35;;;18.30;59.60;;;;;;4896645;28;91827;-70
2022/04/12 08:14:53;;;;;;;8.25;3.25;;;18.30;59.60;;;;;;4897384;28;93029;-70
2022/04/12 08:17:21;;;;;;;6.25;3.35;;;18.30;59.40;;;;;;4897433;28;102952;-72
2022/04/12 08:19:46;;;;;;;8.55;3.50;;;18.30;59.30;;;;;;4899190;28;96676;-70
2022/04/12 08:22:13;;;;;;;6.25;3.20;;;18.30;59.30;;;;;;4897747;28;93029;-70
2022/04/12 08:24:40;;;;;;;5.93;3.08;;;18.30;59.10;;;;;;4896627;28;93316;-71
2022/04/12 08:27:05;;;;;;;10.65;3.30;;;18.20;59.10;;;;;;4895261;28;105924;-71
2022/04/12 08:29:31;;;;;;;8.48;3.03;;;18.30;59.10;;;;;;4895674;28;92790;-71
2022/04/12 08:31:56;;;;;;;6.20;3.13;;;18.30;59.20;;;;;;4895664;28;92650;-70
2022/04/12 08:34:22;;;;;;;5.72;3.03;;;18.20;59.10;;;;;;4896143;28;100149;-71
2022/04/12 08:36:47;;;;;;;6.28;3.00;;;18.20;59.10;;;;;;4895680;28;92966;-71
2022/04/12 08:39:13;;;;;;;8.48;3.28;;;18.20;59.10;;;;;;4895991;28;97027;-70
2022/04/12 08:41:40;;;;;;;6.50;3.17;;;18.20;59.00;;;;;;4895252;28;92991;-71
2022/04/12 08:44:07;;;;;;;7.70;2.92;;;18.10;59.00;;;;;;4893777;28;96347;-71
2022/04/12 08:46:33;;;;;;;6.43;3.15;;;18.20;59.00;;;;;;4895504;28;95749;-71
2022/04/12 08:48:59;;;;;;;6.05;2.85;;;18.10;59.00;;;;;;4895572;28;92538;-70
2022/04/12 08:51:29;;;;;;;6.50;2.90;;;18.20;59.00;;;;;;4895632;28;92549;-71
2022/04/12 08:53:58;;;;;;;4.68;3.13;;;18.10;58.80;;;;;;4894642;28;94427;-71
2022/04/12 08:56:25;;;;;;;6.78;3.00;;;18.10;58.80;;;;;;4894481;28;92729;-71
2022/04/12 08:58:51;;;;;;;6.25;2.80;;;18.10;59.80;;;;;;4895343;28;92621;-71
2022/04/12 09:01:16;;;;;;;6.18;2.80;;;18.10;58.70;;;;;;4895262;28;91957;-71
2022/04/12 09:03:42;;;;;;;4.82;2.90;;;18.10;58.70;;;;;;4895085;28;94465;-71
2022/04/12 09:06:10;;;;;;;5.10;2.90;;;18.10;58.70;;;;;;4895085;28;92944;-71
2022/04/12 09:08:35;;;;;;;5.45;2.75;;;18.10;58.60;;;;;;4893624;28;94970;-71
2022/04/12 09:11:04;;;;;;;3.63;2.60;;;18.10;58.60;;;;;;4895233;28;92617;-71
2022/04/12 09:13:30;;;;;;;5.00;2.88;;;18.10;58.60;;;;;;4891909;28;94733;-71
2022/04/12 09:15:57;;;;;;;5.45;2.90;;;18.10;58.60;;;;;;4895528;28;92963;-70
2022/04/12 09:18:39;;;;;;;4.07;2.63;;;18.10;58.60;;;;;;4893104;28;94626;-71
2022/04/12 09:21:20;;;;;;;4.32;2.67;;;18.10;58.50;;;;;;4895385;28;92593;-70
2022/04/12 09:23:47;;;;;;;4.97;2.78;;;18.10;58.50;;;;;;4894961;28;95301;-71
2022/04/12 09:26:31;;;;;;;6.15;2.85;;;18.10;58.60;;;;;;4895023;28;93115;-71
2022/04/12 09:28:58;;;;;;;3.60;2.55;;;18.10;58.50;;;;;;4895300;28;93094;-71
2022/04/12 09:31:24;;;;;;;5.57;2.50;;;18.10;58.60;;;;;;4893989;28;92576;-70
2022/04/12 09:33:53;;;;;;;5.50;2.60;;;18.10;58.50;;;;;;4893813;28;95662;-70
2022/04/12 09:36:20;;;;;;;2.72;2.20;;;18.10;58.50;;;;;;4893367;28;96392;-70
2022/04/12 09:38:48;;;;;;;3.63;2.40;;;18.10;58.50;;;;;;4894528;28;92941;-70
2022/04/12 09:41:23;;;;;;;5.03;2.58;;;18.10;58.50;;;;;;4893537;28;92949;-70
2022/04/12 09:44:07;;;;;;;5.63;2.40;;;18.10;58.50;;;;;;4895257;28;94112;-70
2022/04/12 09:46:34;;;;;;;4.28;2.45;;;18.10;58.40;;;;;;4895126;28;93626;-70
2022/04/12 09:49:00;;;;;;;3.17;2.00;;;18.20;58.50;;;;;;4894922;28;92594;-70
2022/04/12 09:51:26;;;;;;;2.70;2.10;;;18.10;58.40;;;;;;4895344;28;91760;-70
2022/04/12 09:53:52;;;;;;;4.03;2.58;;;18.20;58.40;;;;;;4894173;28;93212;-70
2022/04/12 09:56:26;;;;;;;3.05;2.20;;;18.20;58.40;;;;;;4893622;28;93928;-70
2022/04/12 09:58:59;;;;;;;5.10;2.33;;;18.20;58.30;;;;;;4894618;28;95489;-70
2022/04/12 10:01:26;;;;;;;4.72;2.50;;;18.20;58.30;;;;;;4897084;28;93254;-72
2022/04/12 10:03:57;;;;;;;4.00;2.35;;;18.20;58.20;;;;;;4897598;28;93950;-71
2022/04/12 10:06:25;;;;;;;2.67;2.10;;;18.20;58.20;;;;;;4896149;28;93058;-68
2022/04/12 10:09:01;;;;;;;3.40;2.20;;;18.20;58.10;;;;;;4895226;28;92813;-70
2022/04/12 10:11:27;;;;;;;3.70;2.20;;;18.20;58.10;;;;;;4895053;28;92520;-67
2022/04/12 10:13:53;;;;;;;5.20;2.40;;;18.30;58.00;;;;;;4893789;28;94129;-71
2022/04/12 10:16:20;;;;;;;2.67;2.17;;;18.30;58.00;;;;;;4894772;28;93379;-70
2022/04/12 10:18:47;;;;;;;2.92;2.10;;;18.30;57.90;;;;;;4892940;28;92704;-70
2022/04/12 10:21:13;;;;;;;3.58;2.30;;;18.30;57.90;;;;;;4894178;28;93071;-72
2022/04/12 10:23:45;;;;;;;3.22;2.00;;;18.30;57.90;;;;;;4892697;28;95597;-71
2022/04/12 10:26:12;;;;;;;4.47;2.30;;;18.30;57.90;;;;;;4893984;28;95435;-70
2022/04/12 10:28:38;;;;;;;2.70;1.95;;;18.30;57.80;;;;;;4893506;28;93252;-70
2022/04/12 10:31:19;;;;;;;3.60;1.95;;;18.30;57.80;;;;;;4892973;28;92499;-70
2022/04/12 10:34:09;;;;;;;2.95;2.00;;;18.40;57.70;;;;;;4893807;28;94165;-70
2022/04/12 10:36:56;;;;;;;2.35;2.05;;;18.40;57.70;;;;;;4892882;28;94478;-71
2022/04/12 10:39:27;;;;;;;2.55;2.00;;;18.40;57.70;;;;;;4894697;28;92551;-70
2022/04/12 10:41:55;;;;;;;4.13;1.90;;;18.30;57.70;;;;;;4894001;28;92001;-70
2022/04/12 10:44:22;;;;;;;2.83;2.05;;;18.40;57.70;;;;;;4894556;28;94121;-70
2022/04/12 10:46:51;;;;;;;2.75;1.73;;;18.40;57.70;;;;;;4894749;28;93156;-70
2022/04/12 10:49:21;;;;;;;3.30;2.15;;;18.40;57.70;;;;;;4892971;28;94850;-70
2022/04/12 10:52:00;;;;;;;3.83;1.98;;;18.40;57.60;;;;;;4893940;28;92783;-70
2022/04/12 10:54:30;;;;;;;3.03;1.90;;;18.40;57.60;;;;;;4893565;28;95102;-70
2022/04/12 10:57:24;;;;;;;3.10;2.03;;;18.40;57.60;;;;;;4893151;28;94066;-70
2022/04/12 10:59:52;;;;;;;2.67;1.88;;;18.40;57.50;;;;;;4893271;28;93602;-70
2022/04/12 11:02:19;;;;;;;2.42;1.90;;;18.40;57.60;;;;;;4893578;28;92826;-71
2022/04/12 11:04:45;;;;;;;3.05;1.77;;;18.40;57.50;;;;;;4892629;28;93397;-70
2022/04/12 11:07:27;;;;;;;2.78;1.70;;;18.40;57.50;;;;;;4893791;28;93797;-69
2022/04/12 11:10:06;;;;;;;3.00;1.60;;;18.40;57.50;;;;;;4893075;28;92609;-69
2022/04/12 11:12:41;;;;;;;2.25;1.80;;;18.40;57.40;;;;;;4893174;28;92671;-70
2022/04/12 11:15:27;;;;;;;2.80;1.63;;;18.40;57.50;;;;;;4891248;28;97243;-70
2022/04/12 11:18:11;;;;;;;2.58;1.70;;;18.50;57.50;;;;;;4892504;28;96277;-69
2022/04/12 11:20:38;;;;;;;2.85;1.85;;;18.40;57.40;;;;;;4892903;28;92951;-70
2022/04/12 11:23:08;;;;;;;2.33;1.80;;;18.40;57.50;;;;;;4892045;28;92680;-69
2022/04/12 11:25:35;;;;;;;2.95;1.60;;;18.50;57.50;;;;;;4892710;28;94906;-70
2022/04/12 11:28:01;;;;;;;2.38;1.50;;;18.50;57.40;;;;;;4905305;28;93040;-70
2022/04/12 11:30:28;;;;;;;1.75;1.60;;;18.50;57.40;;;;;;4911649;28;92578;-70
2022/04/12 11:32:57;;;;;;;2.45;1.65;;;18.50;57.40;;;;;;4913740;28;92106;-69
2022/04/12 11:35:23;;;;;;;3.35;1.90;;;18.50;57.40;;;;;;4894225;28;95760;-70
2022/04/12 11:37:50;;;;;;;3.08;1.80;;;18.50;57.40;;;;;;4912248;28;94029;-70
2022/04/12 11:40:16;;;;;;;2.67;1.88;;;18.50;57.40;;;;;;4910934;28;95089;-69
2022/04/12 11:42:43;;;;;;;2.90;1.90;;;18.50;57.40;;;;;;4912807;28;92991;-70
2022/04/12 11:45:11;;;;;;;3.38;1.75;;;18.50;57.40;;;;;;4912723;28;94714;-70
2022/04/12 11:47:44;;;;;;;2.92;1.98;;;18.50;57.30;;;;;;4914800;28;94908;-70
2022/04/12 11:50:17;;;;;;;2.88;1.52;;;18.50;57.40;;;;;;4914988;28;92684;-70
2022/04/12 11:52:44;;;;;;;2.17;1.77;;;18.50;57.30;;;;;;4913094;28;92661;-70
2022/04/12 11:55:11;;;;;;;3.25;1.40;;;18.50;57.40;;;;;;4911919;28;94332;-69
2022/04/12 11:57:36;;;;;;;2.15;1.60;;;18.50;57.40;;;;;;4912512;28;94418;-70
2022/04/12 12:00:03;;;;;;;2.38;1.70;;;18.50;57.40;;;;;;4912311;28;92828;-68
2022/04/12 12:02:35;;;;;;;3.47;1.70;;;18.50;57.30;;;;;;4913357;28;92633;-70
2022/04/12 12:05:11;;;;;;;2.47;1.52;;;18.50;57.30;;;;;;4911440;28;95433;-70
2022/04/12 12:07:39;;;;;;;2.38;1.48;;;18.50;57.30;;;;;;4913149;28;96679;-69
2022/04/12 12:10:15;;;;;;;1.75;1.33;;;18.50;57.40;;;;;;4912569;28;92996;-69
2022/04/12 12:12:46;;;;;;;2.05;1.40;;;18.50;57.30;;;;;;4913121;28;92495;-70
2022/04/12 12:15:28;;;;;;;2.47;1.58;;;18.40;57.30;;;;;;4912565;28;94070;-70
2022/04/12 12:17:56;;;;;;;2.20;1.60;;;18.40;57.40;;;;;;4911645;28;92935;-70
2022/04/12 12:20:24;;;;;;;1.52;1.27;;;18.40;57.50;;;;;;4911695;28;92960;-70
2022/04/12 12:22:53;;;;;;;1.77;1.67;;;18.40;57.50;;;;;;4912452;28;91752;-68
2022/04/12 12:25:19;;;;;;;2.17;1.38;;;18.40;57.50;;;;;;4911817;28;94272;-71
2022/04/12 12:27:50;;;;;;;2.30;1.58;;;18.30;57.40;;;;;;4912226;28;93759;-71
2022/04/12 12:30:19;;;;;;;1.90;1.50;;;18.40;57.50;;;;;;4911266;28;95229;-70
2022/04/12 12:32:44;;;;;;;2.75;1.50;;;18.40;57.50;;;;;;4911653;28;92980;-70
2022/04/12 12:35:12;;;;;;;2.67;1.50;;;18.30;58.50;;;;;;4912402;28;93154;-70
2022/04/12 12:37:40;;;;;;;1.50;1.30;;;18.40;57.60;;;;;;4912513;28;93795;-70
2022/04/12 12:40:26;;;;;;;2.08;1.40;;;18.40;57.60;;;;;;4912278;28;92733;-70
2022/04/12 12:42:53;;;;;;;2.55;1.50;;;18.30;57.40;;;;;;4911702;28;92555;-70
2022/04/12 12:45:20;;;;;;;2.33;1.50;;;18.30;57.60;;;;;;4911491;28;94256;-70
2022/04/12 12:47:51;;;;;;;2.00;1.40;;;18.30;58.50;;;;;;4912311;28;93032;-70
2022/04/12 12:50:19;;;;;;;1.83;1.50;;;18.30;57.50;;;;;;4912542;28;92485;-70
2022/04/12 12:52:46;;;;;;;3.47;1.85;;;18.30;57.60;;;;;;4913101;28;92534;-70
2022/04/12 12:55:23;;;;;;;2.78;1.75;;;18.30;57.60;;;;;;4914889;28;95305;-69
2022/04/12 12:57:51;;;;;;;2.10;1.70;;;18.40;57.60;;;;;;4916053;28;95175;-70
2022/04/12 13:00:18;;;;;;;2.83;1.50;;;18.40;57.60;;;;;;4915500;28;92534;-70
2022/04/12 13:02:44;;;;;;;1.83;1.50;;;18.40;57.60;;;;;;4915554;28;92616;-70
2022/04/12 13:05:12;;;;;;;2.55;1.38;;;18.40;57.60;;;;;;4914431;28;93289;-70
2022/04/12 13:07:40;;;;;;;1.60;1.48;;;18.40;57.50;;;;;;4915852;28;94098;-70
2022/04/12 13:10:13;;;;;;;3.08;1.50;;;18.40;57.40;;;;;;4914794;28;92516;-70
2022/04/12 13:12:40;;;;;;;1.65;1.40;;;18.50;57.40;;;;;;4916283;28;91857;-70
2022/04/12 13:15:09;;;;;;;2.30;1.50;;;18.40;57.40;;;;;;4915828;28;94645;-70
2022/04/12 13:17:35;;;;;;;1.42;1.33;;;18.50;57.40;;;;;;4915502;28;92661;-70
2022/04/12 13:20:03;;;;;;;1.75;1.40;;;18.50;57.40;;;;;;4913739;28;95530;-71
2022/04/12 13:22:29;;;;;;;1.75;1.50;;;18.50;57.40;;;;;;4914914;28;92605;-70
2022/04/12 13:24:54;;;;;;;1.77;1.33;;;18.50;57.40;;;;;;4915423;28;94641;-70
2022/04/12 13:27:21;;;;;;;1.80;1.30;;;18.50;57.40;;;;;;4915386;28;93765;-70
2022/04/12 13:29:52;;;;;;;1.95;1.30;;;18.50;57.40;;;;;;4915887;28;92453;-70
2022/04/12 13:32:19;;;;;;;2.70;1.65;;;18.50;57.40;;;;;;4919214;28;92923;-70
2022/04/12 13:34:45;;;;;;;2.08;1.40;;;18.50;57.20;;;;;;4916592;28;94503;-70
2022/04/12 13:37:11;;;;;;;2.08;1.35;;;18.60;57.20;;;;;;4914861;28;94543;-70
2022/04/12 13:39:37;;;;;;;2.97;1.50;;;18.50;57.10;;;;;;4915581;28;92456;-70
2022/04/12 13:42:05;;;;;;;1.77;1.40;;;18.60;57.10;;;;;;4913999;28;93112;-70
2022/04/12 13:44:34;;;;;;;1.77;1.35;;;18.60;57.10;;;;;;4912499;28;96981;-70
2022/04/12 13:47:02;;;;;;;1.65;1.30;;;18.60;57.00;;;;;;4914709;28;98651;-68
2022/04/12 13:49:28;;;;;;;2.55;1.50;;;18.70;57.00;;;;;;4913979;28;92619;-70
2022/04/12 13:51:54;;;;;;;2.30;1.40;;;18.70;57.00;;;;;;4914762;28;92931;-70
2022/04/12 13:54:20;;;;;;;1.98;1.10;;;18.70;56.90;;;;;;4914827;28;93294;-70